Time,TemperatureF,DewpointF,PressureIn,WindDirection,WindDirectionDegrees,WindSpeedMPH,WindSpeedGustMPH,Humidity,HourlyPrecipIn,Conditions,Clouds,dailyrainin,SolarRadiationWatts/m^2,SoftwareType,DateUTC
2013-02-26 00:01:00,33.0,21.0,-100.00,WNW,303,7.0,11.0,60,0.00,,,0.00,0.000000,,2013-02-26 08:01:00,
2013-02-26 00:11:00,33.0,21.0,-100.00,WNW,303,7.0,11.0,60,0.00,,,0.00,0.000000,,2013-02-26 08:11:00,
2013-02-26 00:21:00,33.0,21.0,-100.00,WNW,303,7.0,11.0,60,0.00,,,0.00,0.000000,,2013-02-26 08:21:00,
2013-02-26 00:52:00,33.0,21.0,-100.00,NW,304,9.0,13.0,62,0.00,,,0.00,0.000000,,2013-02-26 08:52:00,
2013-02-26 01:01:00,33.0,21.0,-100.00,NW,304,9.0,13.0,62,0.00,,,0.00,0.000000,,2013-02-26 09:01:00,
2013-02-26 01:11:00,33.0,21.0,-100.00,NW,304,9.0,13.0,62,0.00,,,0.00,0.000000,,2013-02-26 09:11:00,
2013-02-26 01:21:00,33.0,21.0,-100.00,NW,304,9.0,13.0,62,0.00,,,0.00,0.000000,,2013-02-26 09:21:00,
2013-02-26 01:52:00,32.0,22.0,-100.00,NW,309,8.0,13.0,66,0.00,,,0.00,0.000000,,2013-02-26 09:52:00,
2013-02-26 02:01:00,32.0,22.0,-100.00,NW,309,8.0,13.0,66,0.00,,,0.00,0.000000,,2013-02-26 10:01:00,
2013-02-26 02:11:00,32.0,22.0,-100.00,NW,309,8.0,13.0,66,0.00,,,0.00,0.000000,,2013-02-26 10:11:00,
2013-02-26 02:21:00,32.0,22.0,-100.00,NW,309,8.0,13.0,66,0.00,,,0.00,0.000000,,2013-02-26 10:21:00,
2013-02-26 02:52:00,31.0,22.0,-100.00,NNW,341,9.0,14.0,69,0.00,,,0.00,0.000000,,2013-02-26 10:52:00,
2013-02-26 03:01:00,31.0,22.0,-100.00,NNW,341,9.0,14.0,69,0.00,,,0.00,0.000000,,2013-02-26 11:01:00,
2013-02-26 03:11:00,31.0,22.0,-100.00,NNW,341,9.0,14.0,69,0.00,,,0.00,0.000000,,2013-02-26 11:11:00,
2013-02-26 03:21:00,31.0,22.0,-100.00,NNW,341,9.0,14.0,69,0.00,,,0.00,0.000000,,2013-02-26 11:21:00,
2013-02-26 03:52:00,30.0,22.0,-100.00,NW,308,9.0,11.0,72,0.00,,,-99.99,0.000000,,2013-02-26 11:52:00,
2013-02-26 04:01:00,30.0,22.0,-100.00,NW,308,9.0,11.0,72,0.00,,,-99.99,0.000000,,2013-02-26 12:01:00,
2013-02-26 04:11:00,30.0,22.0,-100.00,NW,308,9.0,11.0,72,0.00,,,-99.99,0.000000,,2013-02-26 12:11:00,
2013-02-26 04:22:00,30.0,22.0,-100.00,NW,308,9.0,11.0,72,0.00,,,-99.99,0.000000,,2013-02-26 12:22:00,
2013-02-26 04:53:00,30.0,22.0,-100.00,ESE,103,8.0,12.0,73,0.00,,,0.00,0.000000,,2013-02-26 12:53:00,
2013-02-26 05:01:00,30.0,22.0,-100.00,ESE,103,8.0,12.0,73,0.00,,,0.00,0.000000,,2013-02-26 13:01:00,
2013-02-26 05:11:00,30.0,22.0,-100.00,ESE,103,8.0,12.0,73,0.00,,,0.00,0.000000,,2013-02-26 13:11:00,
2013-02-26 05:21:00,30.0,22.0,-100.00,ESE,103,8.0,12.0,73,0.00,,,0.00,0.000000,,2013-02-26 13:21:00,
2013-02-26 05:52:00,30.0,23.0,-100.00,NW,311,7.0,11.0,76,0.00,,,0.00,0.000000,,2013-02-26 13:52:00,
2013-02-26 06:01:00,30.0,23.0,-100.00,NW,311,7.0,11.0,76,0.00,,,0.00,0.000000,,2013-02-26 14:01:00,
2013-02-26 06:11:00,30.0,23.0,-100.00,NW,311,7.0,11.0,76,0.00,,,0.00,0.000000,,2013-02-26 14:11:00,
2013-02-26 06:21:00,30.0,23.0,-100.00,NW,311,7.0,11.0,76,0.00,,,0.00,0.000000,,2013-02-26 14:21:00,
2013-02-26 06:52:00,29.0,22.0,-100.00,NNW,332,8.0,11.0,76,0.00,,,0.00,0.000000,,2013-02-26 14:52:00,
2013-02-26 07:02:00,29.0,22.0,-100.00,NNW,332,8.0,11.0,76,0.00,,,0.00,0.000000,,2013-02-26 15:02:00,
2013-02-26 07:11:00,29.0,22.0,-100.00,NNW,332,8.0,11.0,76,0.00,,,0.00,0.000000,,2013-02-26 15:11:00,
2013-02-26 07:21:00,29.0,22.0,-100.00,NNW,332,8.0,11.0,76,0.00,,,0.00,0.000000,,2013-02-26 15:21:00,
2013-02-26 07:52:00,32.0,22.0,-100.00,NW,316,8.0,10.0,66,0.00,,,0.00,69.000000,,2013-02-26 15:52:00,
2013-02-26 08:01:00,32.0,22.0,-100.00,NW,316,8.0,10.0,66,0.00,,,0.00,69.000000,,2013-02-26 16:01:00,
2013-02-26 08:11:00,32.0,22.0,-100.00,NW,316,8.0,10.0,66,0.00,,,0.00,69.000000,,2013-02-26 16:11:00,
2013-02-26 08:22:00,32.0,22.0,-100.00,NW,316,8.0,10.0,66,0.00,,,0.00,69.000000,,2013-02-26 16:22:00,
2013-02-26 08:52:00,38.0,24.0,-100.00,WNW,298,7.0,10.0,57,0.00,,,0.00,284.000000,,2013-02-26 16:52:00,
2013-02-26 09:01:00,38.0,24.0,-100.00,WNW,298,7.0,10.0,57,0.00,,,0.00,284.000000,,2013-02-26 17:01:00,
2013-02-26 09:52:00,46.0,22.0,-100.00,WNW,301,4.0,9.0,38,0.00,,,0.00,504.000000,,2013-02-26 17:52:00,
2013-02-26 10:01:00,46.0,22.0,-100.00,WNW,301,4.0,9.0,38,0.00,,,0.00,504.000000,,2013-02-26 18:01:00,
2013-02-26 10:12:00,46.0,22.0,-100.00,WNW,301,4.0,9.0,38,0.00,,,0.00,504.000000,,2013-02-26 18:12:00,
2013-02-26 10:21:00,46.0,22.0,-100.00,WNW,301,4.0,9.0,38,0.00,,,0.00,504.000000,,2013-02-26 18:21:00,
2013-02-26 10:52:00,50.0,22.0,-100.00,NW,318,5.0,11.0,33,0.00,,,0.00,700.000000,,2013-02-26 18:52:00,
2013-02-26 11:01:00,50.0,22.0,-100.00,NW,318,5.0,11.0,33,0.00,,,0.00,700.000000,,2013-02-26 19:01:00,
2013-02-26 11:52:00,51.0,2.0,-100.00,SE,141,13.0,20.0,13,0.00,,,0.00,857.000000,,2013-02-26 19:52:00,
2013-02-26 12:01:00,51.0,2.0,-100.00,SE,141,13.0,20.0,13,0.00,,,0.00,857.000000,,2013-02-26 20:01:00,
2013-02-26 12:11:00,51.0,2.0,-100.00,SE,141,13.0,20.0,13,0.00,,,0.00,857.000000,,2013-02-26 20:11:00,
2013-02-26 12:21:00,51.0,2.0,-100.00,SE,141,13.0,20.0,13,0.00,,,0.00,857.000000,,2013-02-26 20:21:00,
2013-02-26 13:51:00,52.0,1.0,-100.00,SE,126,8.0,16.0,12,-99.99,,,0.00,893.000000,,2013-02-26 21:51:00,
2013-02-26 14:01:00,52.0,1.0,-100.00,SE,126,8.0,16.0,12,-99.99,,,0.00,893.000000,,2013-02-26 22:01:00,
2013-02-26 14:11:00,52.0,1.0,-100.00,SE,126,8.0,16.0,12,-99.99,,,0.00,893.000000,,2013-02-26 22:11:00,
2013-02-26 14:21:00,52.0,1.0,-100.00,SE,126,8.0,16.0,12,-99.99,,,0.00,893.000000,,2013-02-26 22:21:00,
2013-02-26 14:52:00,52.0,1.0,-100.00,SE,126,9.0,16.0,12,0.00,,,0.00,796.000000,,2013-02-26 22:52:00,
2013-02-26 15:01:00,52.0,1.0,-100.00,SE,126,9.0,16.0,12,0.00,,,0.00,796.000000,,2013-02-26 23:01:00,
2013-02-26 15:11:00,52.0,1.0,-100.00,SE,126,9.0,16.0,12,0.00,,,0.00,796.000000,,2013-02-26 23:11:00,
2013-02-26 15:21:00,52.0,1.0,-100.00,SE,126,9.0,16.0,12,0.00,,,0.00,796.000000,,2013-02-26 23:21:00,
2013-02-26 15:52:00,54.0,3.0,-100.00,ESE,120,8.0,14.0,12,0.00,,,0.00,633.000000,,2013-02-26 23:52:00,
2013-02-26 16:01:00,54.0,3.0,-100.00,ESE,120,8.0,14.0,12,0.00,,,0.00,633.000000,,2013-02-27 00:01:00,
2013-02-26 16:11:00,54.0,3.0,-100.00,ESE,120,8.0,14.0,12,0.00,,,0.00,633.000000,,2013-02-27 00:11:00,
2013-02-26 16:21:00,54.0,3.0,-100.00,ESE,120,8.0,14.0,12,0.00,,,0.00,633.000000,,2013-02-27 00:21:00,
2013-02-26 16:52:00,51.0,4.0,-100.00,ESE,123,8.0,14.0,14,0.00,,,0.00,419.000000,,2013-02-27 00:52:00,
2013-02-26 17:01:00,51.0,4.0,-100.00,ESE,123,8.0,14.0,14,0.00,,,0.00,419.000000,,2013-02-27 01:01:00,
2013-02-26 17:11:00,51.0,4.0,-100.00,ESE,123,8.0,14.0,14,0.00,,,0.00,419.000000,,2013-02-27 01:11:00,
2013-02-26 17:21:00,51.0,4.0,-100.00,ESE,123,8.0,14.0,14,0.00,,,0.00,419.000000,,2013-02-27 01:21:00,
2013-02-26 17:52:00,41.0,4.0,-100.00,ESE,123,4.0,11.0,21,0.00,,,0.00,70.000000,,2013-02-27 01:52:00,
2013-02-26 18:01:00,41.0,4.0,-100.00,ESE,123,4.0,11.0,21,0.00,,,0.00,70.000000,,2013-02-27 02:01:00,
2013-02-26 18:13:00,41.0,4.0,-100.00,ESE,123,4.0,11.0,21,0.00,,,0.00,70.000000,,2013-02-27 02:13:00,
2013-02-26 18:22:00,41.0,4.0,-100.00,ESE,123,4.0,11.0,21,0.00,,,0.00,70.000000,,2013-02-27 02:22:00,
2013-02-26 18:52:00,37.0,4.0,-100.00,ESE,108,1.0,5.0,24,0.00,,,0.00,4.000000,,2013-02-27 02:52:00,
2013-02-26 19:01:00,37.0,4.0,-100.00,ESE,108,1.0,5.0,24,0.00,,,0.00,4.000000,,2013-02-27 03:01:00,
2013-02-26 19:11:00,37.0,4.0,-100.00,ESE,108,1.0,5.0,24,0.00,,,0.00,4.000000,,2013-02-27 03:11:00,
2013-02-26 19:21:00,37.0,4.0,-100.00,ESE,108,1.0,5.0,24,0.00,,,0.00,4.000000,,2013-02-27 03:21:00,
2013-02-26 19:52:00,34.0,3.0,-100.00,NNE,32,0.0,4.0,26,0.00,,,0.00,0.000000,,2013-02-27 03:52:00,
2013-02-26 20:01:00,34.0,3.0,-100.00,NNE,32,0.0,4.0,26,0.00,,,0.00,0.000000,,2013-02-27 04:01:00,
2013-02-26 20:52:00,36.0,3.0,-100.00,ESE,107,0.0,4.0,24,-99.99,,,0.00,0.000000,,2013-02-27 04:52:00,
2013-02-26 21:01:00,36.0,3.0,-100.00,ESE,107,0.0,4.0,24,-99.99,,,0.00,0.000000,,2013-02-27 05:01:00,
2013-02-26 21:11:00,36.0,3.0,-100.00,ESE,107,0.0,4.0,24,-99.99,,,0.00,0.000000,,2013-02-27 05:11:00,
2013-02-26 21:22:00,36.0,3.0,-100.00,ESE,107,0.0,4.0,24,-99.99,,,0.00,0.000000,,2013-02-27 05:22:00,
2013-02-26 21:52:00,36.0,4.0,-100.00,ESE,122,0.0,4.0,25,0.00,,,0.00,0.000000,,2013-02-27 05:52:00,
2013-02-26 22:02:00,36.0,4.0,-100.00,ESE,122,0.0,4.0,25,0.00,,,0.00,0.000000,,2013-02-27 06:02:00,
2013-02-26 22:11:00,36.0,4.0,-100.00,ESE,122,0.0,4.0,25,0.00,,,0.00,0.000000,,2013-02-27 06:11:00,
2013-02-26 22:21:00,36.0,4.0,-100.00,ESE,122,0.0,4.0,25,0.00,,,0.00,0.000000,,2013-02-27 06:21:00,
2013-02-26 22:52:00,34.0,1.0,-100.00,East,99,0.0,5.0,24,0.00,,,0.00,0.000000,,2013-02-27 06:52:00,
2013-02-26 23:01:00,34.0,1.0,-100.00,East,99,0.0,5.0,24,0.00,,,0.00,0.000000,,2013-02-27 07:01:00,
2013-02-26 23:12:00,34.0,1.0,-100.00,East,99,0.0,5.0,24,0.00,,,0.00,0.000000,,2013-02-27 07:12:00,
2013-02-26 23:21:00,34.0,1.0,-100.00,East,99,0.0,5.0,24,0.00,,,0.00,0.000000,,2013-02-27 07:21:00,
2013-02-26 23:52:00,34.0,0.0,-100.00,East,82,1.0,4.0,23,0.00,,,0.00,0.000000,,2013-02-27 07:52:00,